North Conway, New Hampshire
Current Conditions -  °F | °C
As of 9:54 AM on Wednesday 26 Nov 2014 (Local Time) from KIZG Reporting Station
Overcast Overcast  
Wind Chill:   Ceiling: 11000
Heat Index:   Visibility: 10mi
Dew Point: -4°   Wind: 3mph
Humidity: 57%   Direction: NA
Pressure: 30.18"   Gusts: NA
Location:  44.05°N, 71.13°W
Report Text: KIZG 261454Z AUTO VRB03KT 10SM OVC110 03/M04 A3018 RMK AO2 SLP226 T00331044 50001
Loading
Personal Weather Stations






























Interactive Weather Map New forecast layout! Learn more

10-Day Weather Forecast

Advertisements
Track Severe Weather on mobile